sensor_id;sensor_type;location;lat;lon;timestamp;P1;durP1;ratioP1;P2;durP2;ratioP2
40058;SDS011;25763;49.972;8.568;2023-12-28T00:00:37;48.78;;;46.17;;
40058;SDS011;25763;49.972;8.568;2023-12-28T00:03:03;48.75;;;46.25;;
40058;SDS011;25763;49.972;8.568;2023-12-28T00:05:28;47.42;;;44.97;;
40058;SDS011;25763;49.972;8.568;2023-12-28T00:07:54;45.83;;;43.53;;
40058;SDS011;25763;49.972;8.568;2023-12-28T00:10:25;46.22;;;43.80;;
40058;SDS011;25763;49.972;8.568;2023-12-28T00:12:52;48.90;;;46.30;;
40058;SDS011;25763;49.972;8.568;2023-12-28T00:15:18;48.58;;;46.08;;
40058;SDS011;25763;49.972;8.568;2023-12-28T00:17:43;51.92;;;49.13;;
40058;SDS011;25763;49.972;8.568;2023-12-28T00:20:09;49.35;;;46.85;;
40058;SDS011;25763;49.972;8.568;2023-12-28T00:22:35;46.92;;;44.53;;
40058;SDS011;25763;49.972;8.568;2023-12-28T00:25:02;52.20;;;49.53;;
40058;SDS011;25763;49.972;8.568;2023-12-28T00:27:28;49.58;;;46.97;;
40058;SDS011;25763;49.972;8.568;2023-12-28T00:29:54;47.42;;;45.03;;
40058;SDS011;25763;49.972;8.568;2023-12-28T00:32:19;44.03;;;41.63;;
40058;SDS011;25763;49.972;8.568;2023-12-28T00:34:44;41.75;;;39.60;;
40058;SDS011;25763;49.972;8.568;2023-12-28T00:37:10;41.92;;;39.75;;
40058;SDS011;25763;49.972;8.568;2023-12-28T00:39:35;40.22;;;38.08;;
40058;SDS011;25763;49.972;8.568;2023-12-28T00:42:00;38.88;;;36.75;;
40058;SDS011;25763;49.972;8.568;2023-12-28T00:44:26;37.42;;;35.42;;
40058;SDS011;25763;49.972;8.568;2023-12-28T00:46:51;36.90;;;35.00;;
40058;SDS011;25763;49.972;8.568;2023-12-28T00:49:17;35.42;;;33.42;;
40058;SDS011;25763;49.972;8.568;2023-12-28T00:51:42;32.25;;;30.52;;
40058;SDS011;25763;49.972;8.568;2023-12-28T00:54:07;34.22;;;32.45;;
40058;SDS011;25763;49.972;8.568;2023-12-28T00:56:33;32.72;;;30.55;;
40058;SDS011;25763;49.972;8.568;2023-12-28T00:58:58;31.15;;;29.45;;
40058;SDS011;25763;49.972;8.568;2023-12-28T01:01:23;30.05;;;28.45;;
40058;SDS011;25763;49.972;8.568;2023-12-28T01:03:49;28.00;;;26.50;;
40058;SDS011;25763;49.972;8.568;2023-12-28T01:06:14;25.25;;;23.90;;
40058;SDS011;25763;49.972;8.568;2023-12-28T01:08:39;24.55;;;23.25;;
40058;SDS011;25763;49.972;8.568;2023-12-28T01:11:05;25.00;;;23.63;;
40058;SDS011;25763;49.972;8.568;2023-12-28T01:13:30;24.23;;;22.83;;
40058;SDS011;25763;49.972;8.568;2023-12-28T01:15:55;26.40;;;24.83;;
40058;SDS011;25763;49.972;8.568;2023-12-28T01:18:21;24.67;;;23.38;;
40058;SDS011;25763;49.972;8.568;2023-12-28T01:20:46;25.17;;;23.77;;
40058;SDS011;25763;49.972;8.568;2023-12-28T01:23:12;25.52;;;24.15;;
40058;SDS011;25763;49.972;8.568;2023-12-28T01:25:37;24.30;;;23.00;;
40058;SDS011;25763;49.972;8.568;2023-12-28T01:28:03;25.23;;;23.83;;
40058;SDS011;25763;49.972;8.568;2023-12-28T01:30:28;24.75;;;23.35;;
40058;SDS011;25763;49.972;8.568;2023-12-28T01:32:53;25.58;;;24.13;;
40058;SDS011;25763;49.972;8.568;2023-12-28T01:35:19;26.58;;;25.17;;
40058;SDS011;25763;49.972;8.568;2023-12-28T01:37:44;26.10;;;24.38;;
40058;SDS011;25763;49.972;8.568;2023-12-28T01:40:10;27.40;;;25.90;;
40058;SDS011;25763;49.972;8.568;2023-12-28T01:42:37;26.20;;;24.70;;
40058;SDS011;25763;49.972;8.568;2023-12-28T01:45:02;27.02;;;25.40;;
40058;SDS011;25763;49.972;8.568;2023-12-28T01:47:28;28.45;;;26.95;;
40058;SDS011;25763;49.972;8.568;2023-12-28T01:49:54;28.90;;;27.33;;
40058;SDS011;25763;49.972;8.568;2023-12-28T01:52:21;27.00;;;25.52;;
40058;SDS011;25763;49.972;8.568;2023-12-28T01:54:46;26.85;;;25.35;;
40058;SDS011;25763;49.972;8.568;2023-12-28T01:57:13;27.77;;;25.95;;
40058;SDS011;25763;49.972;8.568;2023-12-28T01:59:38;28.85;;;27.30;;
40058;SDS011;25763;49.972;8.568;2023-12-28T02:02:04;26.80;;;25.35;;
40058;SDS011;25763;49.972;8.568;2023-12-28T02:04:30;27.95;;;26.38;;
40058;SDS011;25763;49.972;8.568;2023-12-28T02:06:56;27.15;;;25.65;;
40058;SDS011;25763;49.972;8.568;2023-12-28T02:09:23;26.80;;;25.35;;
40058;SDS011;25763;49.972;8.568;2023-12-28T02:11:48;27.65;;;26.20;;
40058;SDS011;25763;49.972;8.568;2023-12-28T02:14:13;27.83;;;26.25;;
40058;SDS011;25763;49.972;8.568;2023-12-28T02:16:40;27.83;;;26.25;;
40058;SDS011;25763;49.972;8.568;2023-12-28T02:21:48;25.80;;;24.40;;
40058;SDS011;25763;49.972;8.568;2023-12-28T02:24:14;25.70;;;24.30;;
40058;SDS011;25763;49.972;8.568;2023-12-28T02:26:40;26.15;;;24.75;;
40058;SDS011;25763;49.972;8.568;2023-12-28T02:29:05;26.88;;;25.35;;
40058;SDS011;25763;49.972;8.568;2023-12-28T02:31:38;25.77;;;24.38;;
40058;SDS011;25763;49.972;8.568;2023-12-28T02:34:16;26.08;;;24.67;;
40058;SDS011;25763;49.972;8.568;2023-12-28T02:36:48;27.52;;;26.02;;
40058;SDS011;25763;49.972;8.568;2023-12-28T02:39:14;25.73;;;24.23;;
40058;SDS011;25763;49.972;8.568;2023-12-28T02:41:44;25.25;;;23.88;;
40058;SDS011;25763;49.972;8.568;2023-12-28T02:44:10;25.20;;;23.90;;
40058;SDS011;25763;49.972;8.568;2023-12-28T02:46:36;24.65;;;23.35;;
40058;SDS011;25763;49.972;8.568;2023-12-28T02:49:01;24.55;;;23.25;;
40058;SDS011;25763;49.972;8.568;2023-12-28T02:51:26;25.08;;;23.67;;
40058;SDS011;25763;49.972;8.568;2023-12-28T02:53:52;26.83;;;25.30;;
40058;SDS011;25763;49.972;8.568;2023-12-28T02:56:17;24.60;;;23.30;;
40058;SDS011;25763;49.972;8.568;2023-12-28T02:58:43;25.67;;;24.27;;
40058;SDS011;25763;49.972;8.568;2023-12-28T03:01:08;24.45;;;23.15;;
40058;SDS011;25763;49.972;8.568;2023-12-28T03:03:33;24.52;;;23.23;;
40058;SDS011;25763;49.972;8.568;2023-12-28T03:05:58;25.50;;;24.10;;
40058;SDS011;25763;49.972;8.568;2023-12-28T03:08:24;28.38;;;26.88;;
40058;SDS011;25763;49.972;8.568;2023-12-28T03:10:49;26.17;;;24.67;;
40058;SDS011;25763;49.972;8.568;2023-12-28T03:13:14;25.38;;;23.98;;
40058;SDS011;25763;49.972;8.568;2023-12-28T03:15:40;25.13;;;23.73;;
40058;SDS011;25763;49.972;8.568;2023-12-28T03:18:05;27.13;;;25.58;;
40058;SDS011;25763;49.972;8.568;2023-12-28T03:20:30;24.90;;;23.33;;
40058;SDS011;25763;49.972;8.568;2023-12-28T03:22:56;25.42;;;24.02;;
40058;SDS011;25763;49.972;8.568;2023-12-28T03:25:21;27.35;;;25.77;;
40058;SDS011;25763;49.972;8.568;2023-12-28T03:27:46;25.90;;;24.50;;
40058;SDS011;25763;49.972;8.568;2023-12-28T03:30:12;25.10;;;23.70;;
40058;SDS011;25763;49.972;8.568;2023-12-28T03:32:37;27.73;;;26.13;;
40058;SDS011;25763;49.972;8.568;2023-12-28T03:35:03;25.27;;;23.90;;
40058;SDS011;25763;49.972;8.568;2023-12-28T03:37:29;28.35;;;26.73;;
40058;SDS011;25763;49.972;8.568;2023-12-28T03:39:54;24.55;;;23.23;;
40058;SDS011;25763;49.972;8.568;2023-12-28T03:42:19;26.58;;;25.17;;
40058;SDS011;25763;49.972;8.568;2023-12-28T03:44:46;27.30;;;25.67;;
40058;SDS011;25763;49.972;8.568;2023-12-28T03:47:12;23.95;;;22.65;;
40058;SDS011;25763;49.972;8.568;2023-12-28T03:49:37;24.17;;;22.77;;
40058;SDS011;25763;49.972;8.568;2023-12-28T03:52:04;24.55;;;23.20;;
40058;SDS011;25763;49.972;8.568;2023-12-28T03:54:29;24.75;;;23.35;;
40058;SDS011;25763;49.972;8.568;2023-12-28T03:56:55;25.70;;;24.30;;
40058;SDS011;25763;49.972;8.568;2023-12-28T03:59:20;23.95;;;22.65;;
40058;SDS011;25763;49.972;8.568;2023-12-28T04:01:45;25.23;;;23.83;;
40058;SDS011;25763;49.972;8.568;2023-12-28T04:04:12;26.15;;;24.75;;
40058;SDS011;25763;49.972;8.568;2023-12-28T04:06:37;24.63;;;23.33;;
40058;SDS011;25763;49.972;8.568;2023-12-28T04:09:03;24.52;;;23.23;;
40058;SDS011;25763;49.972;8.568;2023-12-28T04:11:28;24.98;;;23.58;;
40058;SDS011;25763;49.972;8.568;2023-12-28T04:13:54;26.30;;;24.90;;
40058;SDS011;25763;49.972;8.568;2023-12-28T04:16:20;25.42;;;23.83;;
40058;SDS011;25763;49.972;8.568;2023-12-28T04:18:45;27.20;;;25.70;;
40058;SDS011;25763;49.972;8.568;2023-12-28T04:21:11;26.55;;;25.15;;
40058;SDS011;25763;49.972;8.568;2023-12-28T04:23:37;25.95;;;24.55;;
40058;SDS011;25763;49.972;8.568;2023-12-28T04:26:05;25.48;;;24.13;;
40058;SDS011;25763;49.972;8.568;2023-12-28T04:28:30;25.05;;;23.75;;
40058;SDS011;25763;49.972;8.568;2023-12-28T04:30:56;26.88;;;25.38;;
40058;SDS011;25763;49.972;8.568;2023-12-28T04:33:21;26.58;;;25.08;;
40058;SDS011;25763;49.972;8.568;2023-12-28T04:35:47;26.58;;;25.17;;
40058;SDS011;25763;49.972;8.568;2023-12-28T04:38:12;26.55;;;25.05;;
40058;SDS011;25763;49.972;8.568;2023-12-28T04:40:38;26.23;;;24.73;;
40058;SDS011;25763;49.972;8.568;2023-12-28T04:43:03;25.67;;;24.27;;
40058;SDS011;25763;49.972;8.568;2023-12-28T04:45:29;26.90;;;25.35;;
40058;SDS011;25763;49.972;8.568;2023-12-28T04:47:54;25.90;;;24.50;;
40058;SDS011;25763;49.972;8.568;2023-12-28T04:50:20;27.45;;;25.90;;
40058;SDS011;25763;49.972;8.568;2023-12-28T04:52:45;29.13;;;27.52;;
40058;SDS011;25763;49.972;8.568;2023-12-28T04:55:10;27.08;;;25.58;;
40058;SDS011;25763;49.972;8.568;2023-12-28T04:57:36;29.15;;;27.65;;
40058;SDS011;25763;49.972;8.568;2023-12-28T05:00:01;26.48;;;25.08;;
40058;SDS011;25763;49.972;8.568;2023-12-28T05:02:28;27.63;;;26.13;;
40058;SDS011;25763;49.972;8.568;2023-12-28T05:04:53;28.95;;;27.42;;
40058;SDS011;25763;49.972;8.568;2023-12-28T05:07:18;26.38;;;24.98;;
40058;SDS011;25763;49.972;8.568;2023-12-28T05:09:44;26.58;;;25.15;;
40058;SDS011;25763;49.972;8.568;2023-12-28T05:12:09;28.17;;;26.67;;
40058;SDS011;25763;49.972;8.568;2023-12-28T05:14:34;26.88;;;25.48;;
40058;SDS011;25763;49.972;8.568;2023-12-28T05:17:00;28.40;;;26.60;;
40058;SDS011;25763;49.972;8.568;2023-12-28T05:19:25;28.08;;;26.58;;
40058;SDS011;25763;49.972;8.568;2023-12-28T05:21:50;27.83;;;26.35;;
40058;SDS011;25763;49.972;8.568;2023-12-28T05:24:16;31.95;;;30.25;;
40058;SDS011;25763;49.972;8.568;2023-12-28T05:26:41;29.42;;;27.92;;
40058;SDS011;25763;49.972;8.568;2023-12-28T05:29:06;30.55;;;28.92;;
40058;SDS011;25763;49.972;8.568;2023-12-28T05:31:32;28.65;;;27.13;;
40058;SDS011;25763;49.972;8.568;2023-12-28T05:33:57;29.50;;;27.98;;
40058;SDS011;25763;49.972;8.568;2023-12-28T05:36:23;30.88;;;29.17;;
40058;SDS011;25763;49.972;8.568;2023-12-28T05:38:49;31.00;;;29.35;;
40058;SDS011;25763;49.972;8.568;2023-12-28T05:41:14;29.88;;;28.27;;
40058;SDS011;25763;49.972;8.568;2023-12-28T05:43:40;32.53;;;30.73;;
40058;SDS011;25763;49.972;8.568;2023-12-28T05:46:05;31.98;;;30.27;;
40058;SDS011;25763;49.972;8.568;2023-12-28T05:48:30;29.55;;;28.02;;
40058;SDS011;25763;49.972;8.568;2023-12-28T05:50:58;30.42;;;28.83;;
40058;SDS011;25763;49.972;8.568;2023-12-28T05:53:24;31.67;;;30.02;;
40058;SDS011;25763;49.972;8.568;2023-12-28T05:55:50;31.60;;;29.90;;
40058;SDS011;25763;49.972;8.568;2023-12-28T05:58:15;33.28;;;31.52;;
40058;SDS011;25763;49.972;8.568;2023-12-28T06:00:40;33.95;;;32.15;;
40058;SDS011;25763;49.972;8.568;2023-12-28T06:03:06;34.00;;;32.22;;
40058;SDS011;25763;49.972;8.568;2023-12-28T06:05:32;35.15;;;32.95;;
40058;SDS011;25763;49.972;8.568;2023-12-28T06:07:57;35.00;;;33.17;;
40058;SDS011;25763;49.972;8.568;2023-12-28T06:10:22;33.55;;;31.75;;
40058;SDS011;25763;49.972;8.568;2023-12-28T06:12:49;31.35;;;29.67;;
40058;SDS011;25763;49.972;8.568;2023-12-28T06:15:14;36.13;;;34.25;;
40058;SDS011;25763;49.972;8.568;2023-12-28T06:17:40;32.58;;;30.88;;
40058;SDS011;25763;49.972;8.568;2023-12-28T06:20:05;35.22;;;33.40;;
40058;SDS011;25763;49.972;8.568;2023-12-28T06:22:31;33.50;;;31.65;;
40058;SDS011;25763;49.972;8.568;2023-12-28T06:24:56;35.78;;;33.95;;
40058;SDS011;25763;49.972;8.568;2023-12-28T06:27:22;34.42;;;32.63;;
40058;SDS011;25763;49.972;8.568;2023-12-28T06:29:48;35.40;;;33.60;;
40058;SDS011;25763;49.972;8.568;2023-12-28T06:32:14;36.03;;;34.17;;
40058;SDS011;25763;49.972;8.568;2023-12-28T06:34:39;35.70;;;33.88;;
40058;SDS011;25763;49.972;8.568;2023-12-28T06:37:04;39.38;;;37.38;;
40058;SDS011;25763;49.972;8.568;2023-12-28T06:39:30;37.63;;;35.70;;
40058;SDS011;25763;49.972;8.568;2023-12-28T06:41:55;39.08;;;37.08;;
40058;SDS011;25763;49.972;8.568;2023-12-28T06:44:21;37.58;;;35.65;;
40058;SDS011;25763;49.972;8.568;2023-12-28T06:46:46;42.03;;;39.85;;
40058;SDS011;25763;49.972;8.568;2023-12-28T06:49:11;37.60;;;35.67;;
40058;SDS011;25763;49.972;8.568;2023-12-28T06:51:36;35.70;;;33.78;;
40058;SDS011;25763;49.972;8.568;2023-12-28T06:54:02;39.97;;;37.90;;
40058;SDS011;25763;49.972;8.568;2023-12-28T06:56:27;37.13;;;35.10;;
40058;SDS011;25763;49.972;8.568;2023-12-28T06:58:53;40.05;;;37.97;;
40058;SDS011;25763;49.972;8.568;2023-12-28T07:01:19;37.08;;;35.17;;
40058;SDS011;25763;49.972;8.568;2023-12-28T07:03:44;37.55;;;35.55;;
40058;SDS011;25763;49.972;8.568;2023-12-28T07:06:09;41.35;;;39.25;;
40058;SDS011;25763;49.972;8.568;2023-12-28T07:08:35;39.35;;;37.30;;
40058;SDS011;25763;49.972;8.568;2023-12-28T07:11:01;39.55;;;37.50;;
40058;SDS011;25763;49.972;8.568;2023-12-28T07:13:26;40.78;;;38.70;;
40058;SDS011;25763;49.972;8.568;2023-12-28T07:15:52;38.88;;;36.88;;
40058;SDS011;25763;49.972;8.568;2023-12-28T07:18:18;41.22;;;39.15;;
40058;SDS011;25763;49.972;8.568;2023-12-28T07:20:43;41.13;;;39.00;;
40058;SDS011;25763;49.972;8.568;2023-12-28T07:23:09;39.33;;;37.33;;
40058;SDS011;25763;49.972;8.568;2023-12-28T07:25:34;40.85;;;38.75;;
40058;SDS011;25763;49.972;8.568;2023-12-28T07:28:00;41.45;;;39.25;;
40058;SDS011;25763;49.972;8.568;2023-12-28T07:30:25;41.08;;;38.97;;
40058;SDS011;25763;49.972;8.568;2023-12-28T07:32:50;37.42;;;35.53;;
40058;SDS011;25763;49.972;8.568;2023-12-28T07:35:17;42.30;;;39.97;;
40058;SDS011;25763;49.972;8.568;2023-12-28T07:37:42;38.58;;;36.58;;
40058;SDS011;25763;49.972;8.568;2023-12-28T07:40:09;37.33;;;35.42;;
40058;SDS011;25763;49.972;8.568;2023-12-28T07:42:36;40.38;;;38.25;;
40058;SDS011;25763;49.972;8.568;2023-12-28T07:45:01;38.83;;;36.80;;
40058;SDS011;25763;49.972;8.568;2023-12-28T07:47:27;38.17;;;36.15;;
40058;SDS011;25763;49.972;8.568;2023-12-28T07:49:52;37.85;;;35.90;;
40058;SDS011;25763;49.972;8.568;2023-12-28T07:52:18;40.92;;;38.83;;
40058;SDS011;25763;49.972;8.568;2023-12-28T07:54:43;39.28;;;37.25;;
40058;SDS011;25763;49.972;8.568;2023-12-28T07:57:08;39.33;;;37.30;;
40058;SDS011;25763;49.972;8.568;2023-12-28T07:59:33;38.40;;;36.40;;
40058;SDS011;25763;49.972;8.568;2023-12-28T08:01:59;40.78;;;38.67;;
40058;SDS011;25763;49.972;8.568;2023-12-28T08:04:24;35.90;;;33.97;;
40058;SDS011;25763;49.972;8.568;2023-12-28T08:06:49;37.63;;;35.70;;
40058;SDS011;25763;49.972;8.568;2023-12-28T08:09:15;38.13;;;36.15;;
40058;SDS011;25763;49.972;8.568;2023-12-28T08:11:40;41.63;;;39.15;;
40058;SDS011;25763;49.972;8.568;2023-12-28T08:14:05;38.75;;;36.75;;
40058;SDS011;25763;49.972;8.568;2023-12-28T08:16:31;38.95;;;36.97;;
40058;SDS011;25763;49.972;8.568;2023-12-28T08:18:56;36.72;;;34.85;;
40058;SDS011;25763;49.972;8.568;2023-12-28T08:21:22;40.67;;;38.58;;
40058;SDS011;25763;49.972;8.568;2023-12-28T08:23:47;38.60;;;36.55;;
40058;SDS011;25763;49.972;8.568;2023-12-28T08:26:12;37.63;;;35.70;;
40058;SDS011;25763;49.972;8.568;2023-12-28T08:28:38;40.65;;;38.60;;
40058;SDS011;25763;49.972;8.568;2023-12-28T08:31:03;41.22;;;39.05;;
40058;SDS011;25763;49.972;8.568;2023-12-28T08:33:29;39.08;;;37.08;;
40058;SDS011;25763;49.972;8.568;2023-12-28T08:35:55;40.13;;;38.03;;
40058;SDS011;25763;49.972;8.568;2023-12-28T08:38:20;39.63;;;37.53;;
40058;SDS011;25763;49.972;8.568;2023-12-28T08:40:45;39.63;;;37.42;;
40058;SDS011;25763;49.972;8.568;2023-12-28T08:43:11;38.25;;;36.28;;
40058;SDS011;25763;49.972;8.568;2023-12-28T08:45:36;40.80;;;38.63;;
40058;SDS011;25763;49.972;8.568;2023-12-28T08:48:02;39.45;;;37.45;;
40058;SDS011;25763;49.972;8.568;2023-12-28T08:50:28;41.50;;;39.38;;
40058;SDS011;25763;49.972;8.568;2023-12-28T08:52:53;43.00;;;40.80;;
40058;SDS011;25763;49.972;8.568;2023-12-28T08:55:18;41.97;;;39.83;;
40058;SDS011;25763;49.972;8.568;2023-12-28T08:57:44;42.65;;;40.45;;
40058;SDS011;25763;49.972;8.568;2023-12-28T09:00:09;42.10;;;39.92;;
40058;SDS011;25763;49.972;8.568;2023-12-28T09:02:35;41.10;;;38.97;;
40058;SDS011;25763;49.972;8.568;2023-12-28T09:05:01;42.40;;;40.20;;
40058;SDS011;25763;49.972;8.568;2023-12-28T09:07:26;43.20;;;41.03;;
40058;SDS011;25763;49.972;8.568;2023-12-28T09:09:51;42.88;;;40.63;;
40058;SDS011;25763;49.972;8.568;2023-12-28T09:12:17;44.20;;;41.90;;
40058;SDS011;25763;49.972;8.568;2023-12-28T09:14:43;44.65;;;42.38;;
40058;SDS011;25763;49.972;8.568;2023-12-28T09:17:08;42.92;;;40.72;;
40058;SDS011;25763;49.972;8.568;2023-12-28T09:19:33;46.35;;;43.80;;
40058;SDS011;25763;49.972;8.568;2023-12-28T09:21:59;42.33;;;40.15;;
40058;SDS011;25763;49.972;8.568;2023-12-28T09:24:24;44.92;;;42.63;;
40058;SDS011;25763;49.972;8.568;2023-12-28T09:26:49;41.63;;;39.40;;
40058;SDS011;25763;49.972;8.568;2023-12-28T09:29:15;40.35;;;38.28;;
40058;SDS011;25763;49.972;8.568;2023-12-28T09:31:40;39.35;;;37.30;;
40058;SDS011;25763;49.972;8.568;2023-12-28T09:34:05;41.45;;;39.28;;
40058;SDS011;25763;49.972;8.568;2023-12-28T09:36:31;40.03;;;37.95;;
40058;SDS011;25763;49.972;8.568;2023-12-28T09:38:56;40.33;;;38.22;;
40058;SDS011;25763;49.972;8.568;2023-12-28T09:41:23;40.25;;;38.15;;
40058;SDS011;25763;49.972;8.568;2023-12-28T09:44:33;38.22;;;36.10;;
40058;SDS011;25763;49.972;8.568;2023-12-28T09:46:43;37.90;;;35.95;;
40058;SDS011;25763;49.972;8.568;2023-12-28T09:49:10;38.28;;;36.28;;
40058;SDS011;25763;49.972;8.568;2023-12-28T09:51:36;34.95;;;33.15;;
40058;SDS011;25763;49.972;8.568;2023-12-28T09:54:03;32.53;;;30.83;;
40058;SDS011;25763;49.972;8.568;2023-12-28T09:56:28;32.05;;;30.30;;
40058;SDS011;25763;49.972;8.568;2023-12-28T09:58:55;30.60;;;28.95;;
40058;SDS011;25763;49.972;8.568;2023-12-28T10:01:22;29.38;;;27.77;;
40058;SDS011;25763;49.972;8.568;2023-12-28T10:03:47;29.60;;;28.02;;
40058;SDS011;25763;49.972;8.568;2023-12-28T10:06:13;27.17;;;25.77;;
40058;SDS011;25763;49.972;8.568;2023-12-28T10:08:47;26.98;;;25.58;;
40058;SDS011;25763;49.972;8.568;2023-12-28T10:11:14;26.45;;;25.05;;
40058;SDS011;25763;49.972;8.568;2023-12-28T10:13:41;27.33;;;25.92;;
40058;SDS011;25763;49.972;8.568;2023-12-28T10:16:08;25.73;;;24.33;;
40058;SDS011;25763;49.972;8.568;2023-12-28T10:18:35;25.30;;;24.00;;
40058;SDS011;25763;49.972;8.568;2023-12-28T10:21:01;25.83;;;24.42;;
40058;SDS011;25763;49.972;8.568;2023-12-28T10:23:26;25.98;;;24.58;;
40058;SDS011;25763;49.972;8.568;2023-12-28T10:25:51;27.27;;;25.75;;
40058;SDS011;25763;49.972;8.568;2023-12-28T10:28:21;27.52;;;26.02;;
40058;SDS011;25763;49.972;8.568;2023-12-28T10:30:53;27.73;;;26.13;;
40058;SDS011;25763;49.972;8.568;2023-12-28T10:33:20;24.33;;;23.02;;
40058;SDS011;25763;49.972;8.568;2023-12-28T10:35:45;22.40;;;21.20;;
40058;SDS011;25763;49.972;8.568;2023-12-28T10:38:10;24.35;;;23.05;;
40058;SDS011;25763;49.972;8.568;2023-12-28T10:40:40;24.25;;;22.90;;
40058;SDS011;25763;49.972;8.568;2023-12-28T10:43:07;23.52;;;22.23;;
40058;SDS011;25763;49.972;8.568;2023-12-28T10:45:35;23.40;;;22.02;;
40058;SDS011;25763;49.972;8.568;2023-12-28T10:50:38;23.17;;;21.95;;
40058;SDS011;25763;49.972;8.568;2023-12-28T10:56:08;23.60;;;22.30;;
40058;SDS011;25763;49.972;8.568;2023-12-28T10:58:48;23.55;;;22.27;;
40058;SDS011;25763;49.972;8.568;2023-12-28T11:01:22;24.30;;;23.00;;
40058;SDS011;25763;49.972;8.568;2023-12-28T11:03:57;24.10;;;22.80;;
40058;SDS011;25763;49.972;8.568;2023-12-28T11:06:29;22.83;;;21.52;;
40058;SDS011;25763;49.972;8.568;2023-12-28T11:08:55;23.08;;;21.77;;
40058;SDS011;25763;49.972;8.568;2023-12-28T11:11:23;23.98;;;22.67;;
40058;SDS011;25763;49.972;8.568;2023-12-28T11:13:49;24.40;;;22.90;;
40058;SDS011;25763;49.972;8.568;2023-12-28T11:16:16;24.33;;;23.02;;
40058;SDS011;25763;49.972;8.568;2023-12-28T11:18:42;26.17;;;24.77;;
40058;SDS011;25763;49.972;8.568;2023-12-28T11:21:08;24.80;;;23.42;;
40058;SDS011;25763;49.972;8.568;2023-12-28T11:23:34;22.02;;;20.83;;
40058;SDS011;25763;49.972;8.568;2023-12-28T11:26:00;24.23;;;22.83;;
40058;SDS011;25763;49.972;8.568;2023-12-28T11:28:25;24.55;;;23.25;;
40058;SDS011;25763;49.972;8.568;2023-12-28T11:30:52;24.73;;;23.42;;
40058;SDS011;25763;49.972;8.568;2023-12-28T11:33:17;24.17;;;22.73;;
40058;SDS011;25763;49.972;8.568;2023-12-28T11:35:42;22.50;;;21.30;;
40058;SDS011;25763;49.972;8.568;2023-12-28T11:38:08;23.60;;;22.25;;
40058;SDS011;25763;49.972;8.568;2023-12-28T11:40:45;24.73;;;23.40;;
40058;SDS011;25763;49.972;8.568;2023-12-28T11:43:18;25.38;;;24.00;;
40058;SDS011;25763;49.972;8.568;2023-12-28T11:45:48;23.50;;;22.20;;
40058;SDS011;25763;49.972;8.568;2023-12-28T11:48:22;25.05;;;23.65;;
40058;SDS011;25763;49.972;8.568;2023-12-28T11:50:55;25.00;;;23.50;;
40058;SDS011;25763;49.972;8.568;2023-12-28T11:53:22;25.02;;;23.70;;
40058;SDS011;25763;49.972;8.568;2023-12-28T11:55:48;25.85;;;24.35;;
40058;SDS011;25763;49.972;8.568;2023-12-28T11:58:15;25.90;;;24.50;;
40058;SDS011;25763;49.972;8.568;2023-12-28T12:00:42;25.50;;;24.20;;
40058;SDS011;25763;49.972;8.568;2023-12-28T12:03:09;25.02;;;23.73;;
40058;SDS011;25763;49.972;8.568;2023-12-28T12:05:35;25.38;;;24.02;;
40058;SDS011;25763;49.972;8.568;2023-12-28T12:08:01;24.77;;;23.48;;
40058;SDS011;25763;49.972;8.568;2023-12-28T12:10:26;25.23;;;23.92;;
40058;SDS011;25763;49.972;8.568;2023-12-28T12:12:52;24.88;;;23.55;;
40058;SDS011;25763;49.972;8.568;2023-12-28T12:15:18;23.95;;;22.65;;
40058;SDS011;25763;49.972;8.568;2023-12-28T12:17:43;26.90;;;25.40;;
40058;SDS011;25763;49.972;8.568;2023-12-28T12:20:09;25.67;;;24.33;;
40058;SDS011;25763;49.972;8.568;2023-12-28T12:22:34;24.35;;;23.05;;
40058;SDS011;25763;49.972;8.568;2023-12-28T12:25:00;25.58;;;24.20;;
40058;SDS011;25763;49.972;8.568;2023-12-28T12:27:29;24.38;;;22.98;;
40058;SDS011;25763;49.972;8.568;2023-12-28T12:29:54;24.10;;;22.77;;
40058;SDS011;25763;49.972;8.568;2023-12-28T12:32:19;23.13;;;21.90;;
40058;SDS011;25763;49.972;8.568;2023-12-28T12:34:46;23.70;;;22.40;;
40058;SDS011;25763;49.972;8.568;2023-12-28T12:37:12;24.17;;;22.88;;
40058;SDS011;25763;49.972;8.568;2023-12-28T12:39:37;23.85;;;22.52;;
40058;SDS011;25763;49.972;8.568;2023-12-28T12:42:03;23.77;;;22.48;;
40058;SDS011;25763;49.972;8.568;2023-12-28T12:44:29;23.95;;;22.65;;
40058;SDS011;25763;49.972;8.568;2023-12-28T12:46:57;23.88;;;22.58;;
40058;SDS011;25763;49.972;8.568;2023-12-28T12:49:24;25.83;;;24.42;;
40058;SDS011;25763;49.972;8.568;2023-12-28T12:51:50;22.55;;;21.35;;
40058;SDS011;25763;49.972;8.568;2023-12-28T12:54:16;22.70;;;21.50;;
40058;SDS011;25763;49.972;8.568;2023-12-28T12:56:43;24.45;;;23.15;;
40058;SDS011;25763;49.972;8.568;2023-12-28T12:59:10;23.63;;;22.38;;
40058;SDS011;25763;49.972;8.568;2023-12-28T13:01:41;24.42;;;23.13;;
40058;SDS011;25763;49.972;8.568;2023-12-28T13:04:06;23.00;;;21.73;;
40058;SDS011;25763;49.972;8.568;2023-12-28T13:06:32;23.27;;;22.08;;
40058;SDS011;25763;49.972;8.568;2023-12-28T13:08:57;23.25;;;21.98;;
40058;SDS011;25763;49.972;8.568;2023-12-28T13:11:22;24.08;;;22.77;;
40058;SDS011;25763;49.972;8.568;2023-12-28T13:13:51;22.45;;;21.25;;
40058;SDS011;25763;49.972;8.568;2023-12-28T13:16:17;24.45;;;23.15;;
40058;SDS011;25763;49.972;8.568;2023-12-28T13:18:42;24.83;;;23.40;;
40058;SDS011;25763;49.972;8.568;2023-12-28T13:21:07;24.05;;;22.75;;
40058;SDS011;25763;49.972;8.568;2023-12-28T13:23:33;23.67;;;22.42;;
40058;SDS011;25763;49.972;8.568;2023-12-28T13:25:58;25.92;;;24.52;;
40058;SDS011;25763;49.972;8.568;2023-12-28T13:28:23;24.42;;;23.13;;
40058;SDS011;25763;49.972;8.568;2023-12-28T13:30:49;25.30;;;23.98;;
40058;SDS011;25763;49.972;8.568;2023-12-28T13:33:16;23.83;;;22.52;;
40058;SDS011;25763;49.972;8.568;2023-12-28T13:35:42;24.15;;;22.85;;
40058;SDS011;25763;49.972;8.568;2023-12-28T13:38:07;26.23;;;24.83;;
40058;SDS011;25763;49.972;8.568;2023-12-28T13:40:32;23.73;;;22.33;;
40058;SDS011;25763;49.972;8.568;2023-12-28T13:42:58;26.63;;;25.23;;
40058;SDS011;25763;49.972;8.568;2023-12-28T13:45:23;26.92;;;25.52;;
40058;SDS011;25763;49.972;8.568;2023-12-28T13:47:49;25.17;;;23.88;;
40058;SDS011;25763;49.972;8.568;2023-12-28T13:50:14;23.67;;;22.40;;
40058;SDS011;25763;49.972;8.568;2023-12-28T13:52:40;25.77;;;24.38;;
40058;SDS011;25763;49.972;8.568;2023-12-28T13:55:05;24.98;;;23.67;;
40058;SDS011;25763;49.972;8.568;2023-12-28T13:57:31;26.80;;;25.40;;
40058;SDS011;25763;49.972;8.568;2023-12-28T13:59:57;25.83;;;24.42;;
40058;SDS011;25763;49.972;8.568;2023-12-28T14:02:25;26.15;;;24.75;;
40058;SDS011;25763;49.972;8.568;2023-12-28T14:04:51;26.85;;;25.45;;
40058;SDS011;25763;49.972;8.568;2023-12-28T14:07:16;27.08;;;25.67;;
40058;SDS011;25763;49.972;8.568;2023-12-28T14:09:42;25.85;;;24.48;;
40058;SDS011;25763;49.972;8.568;2023-12-28T14:12:07;26.63;;;25.23;;
40058;SDS011;25763;49.972;8.568;2023-12-28T14:14:32;28.10;;;26.60;;
40058;SDS011;25763;49.972;8.568;2023-12-28T14:16:58;28.45;;;26.95;;
40058;SDS011;25763;49.972;8.568;2023-12-28T14:19:23;27.98;;;26.27;;
40058;SDS011;25763;49.972;8.568;2023-12-28T14:21:48;29.95;;;28.38;;